Time;durP1;ratioP1;P1;durP2;ratioP2;P2;SDS_P1;SDS_P2;PMS_P1;PMS_P2;Temp;Humidity;BMP_temperature;BMP_pressure;BME280_temperature;BME280_humidity;BME280_pressure;Samples;Min_cycle;Max_cycle;Signal;HPM_P1;HPM_P2
2023/01/19 00:01:20;;;;;;;10.13;4.90;;;;;;;-2.86;100.00;99538.97;5080657;28;20244;-75
2023/01/19 00:03:46;;;;;;;10.30;5.80;;;;;;;-2.97;100.00;99548.22;5083991;28;20235;-75
2023/01/19 00:06:13;;;;;;;7.83;4.43;;;;;;;-2.93;100.00;99554.19;5076731;28;20206;-75
2023/01/19 00:08:43;;;;;;;8.13;4.90;;;;;;;-2.90;100.00;99555.09;5060408;28;20210;-75
2023/01/19 00:11:10;;;;;;;11.63;6.03;;;;;;;-3.01;100.00;99559.19;5045239;28;20234;-75
2023/01/19 00:13:37;;;;;;;9.70;6.03;;;;;;;-2.99;100.00;99560.09;5070911;28;20591;-75
2023/01/19 00:16:04;;;;;;;7.90;4.83;;;;;;;-2.99;100.00;99556.66;5070180;28;20214;-76
2023/01/19 00:18:30;;;;;;;8.00;5.53;;;;;;;-3.00;100.00;99566.03;5052403;28;20242;-76
2023/01/19 00:20:57;;;;;;;9.83;5.00;;;;;;;-3.11;100.00;99571.00;5067446;28;20202;-76
2023/01/19 00:23:24;;;;;;;11.20;5.20;;;;;;;-3.17;100.00;99583.66;5070339;28;20595;-76
2023/01/19 00:25:52;;;;;;;11.63;5.83;;;;;;;-3.20;100.00;99577.66;5073169;28;20443;-76
2023/01/19 00:28:19;;;;;;;10.67;6.20;;;;;;;-3.26;100.00;99574.19;5074523;28;20881;-76
2023/01/19 00:30:46;;;;;;;11.93;6.33;;;;;;;-3.26;100.00;99581.00;5056506;28;20468;-76
2023/01/19 00:33:14;;;;;;;8.67;5.37;;;;;;;-3.36;100.00;99577.47;5064353;28;20655;-76
2023/01/19 00:35:41;;;;;;;9.73;5.07;;;;;;;-3.38;100.00;99581.69;5059175;28;20268;-76
2023/01/19 00:38:08;;;;;;;11.93;5.70;;;;;;;-3.41;100.00;99586.75;5074297;28;20256;-76
2023/01/19 00:40:35;;;;;;;9.40;4.57;;;;;;;-3.43;100.00;99594.38;5074494;28;20281;-75
2023/01/19 00:43:04;;;;;;;9.23;5.30;;;;;;;-3.55;100.00;99598.41;5063376;28;20202;-76
2023/01/19 00:45:31;;;;;;;10.97;5.87;;;;;;;-3.63;100.00;99593.22;5073146;28;20687;-76
2023/01/19 00:47:58;;;;;;;13.53;5.83;;;;;;;-3.67;100.00;99602.50;5070390;28;20260;-76
2023/01/19 00:50:27;;;;;;;10.43;5.67;;;;;;;-3.70;100.00;99599.91;5069428;28;20205;-76
2023/01/19 00:52:55;;;;;;;9.83;5.47;;;;;;;-3.75;100.00;99595.59;5054931;28;20195;-76
2023/01/19 00:55:23;;;;;;;8.90;5.70;;;;;;;-3.76;100.00;99596.41;5083533;28;20226;-75
2023/01/19 00:57:50;;;;;;;7.97;4.60;;;;;;;-3.79;100.00;99597.22;5070461;28;20206;-76
2023/01/19 01:00:20;;;;;;;8.17;5.40;;;;;;;-3.75;100.00;99601.53;5073831;28;20453;-76
2023/01/19 01:02:49;;;;;;;8.30;5.47;;;;;;;-3.78;100.00;99609.16;5069471;28;20915;-76
2023/01/19 01:05:17;;;;;;;7.30;5.30;;;;;;;-3.81;100.00;99609.09;5073268;28;20476;-76
2023/01/19 01:07:45;;;;;;;9.03;5.27;;;;;;;-3.94;100.00;99619.91;5063051;28;20262;-76
2023/01/19 01:10:14;;;;;;;11.80;5.67;;;;;;;-4.03;100.00;99628.25;5068344;28;20584;-76
2023/01/19 01:12:41;;;;;;;8.87;4.60;;;;;;;-4.09;100.00;99626.47;5073524;28;20847;-76
2023/01/19 01:15:10;;;;;;;8.83;5.50;;;;;;;-4.14;100.00;99634.84;5073352;28;20873;-76
2023/01/19 01:17:45;;;;;;;9.63;5.57;;;;;;;-4.24;100.00;99631.28;5055563;28;20463;-76
2023/01/19 01:20:17;;;;;;;12.30;6.60;;;;;;;-4.25;100.00;99639.75;5065667;28;20940;-75
2023/01/19 01:22:46;;;;;;;9.97;5.67;;;;;;;-4.28;100.00;99637.16;5074054;28;20448;-76
2023/01/19 01:25:14;;;;;;;11.87;5.57;;;;;;;-4.33;100.00;99644.69;5054317;28;20463;-76
2023/01/19 01:27:41;;;;;;;11.53;6.00;;;;;;;-4.35;100.00;99638.72;5063321;28;20455;-76
2023/01/19 01:30:10;;;;;;;8.93;5.43;;;;;;;-4.39;100.00;99645.44;5073185;28;20873;-75
2023/01/19 01:32:39;;;;;;;11.43;6.63;;;;;;;-4.46;100.00;99652.94;5064173;28;20864;-76
2023/01/19 01:35:08;;;;;;;10.70;6.37;;;;;;;-4.46;100.00;99653.81;5073147;28;20565;-75
2023/01/19 01:37:36;;;;;;;10.10;5.80;;;;;;;-4.41;100.00;99654.75;5055332;28;20542;-76
2023/01/19 01:40:04;;;;;;;10.40;5.70;;;;;;;-4.44;100.00;99653.84;5073522;28;20451;-75
2023/01/19 01:42:32;;;;;;;9.30;5.10;;;;;;;-4.49;100.00;99656.28;5073833;28;20447;-75
2023/01/19 01:45:00;;;;;;;12.07;5.67;;;;;;;-4.48;100.00;99652.91;5055625;28;20497;-75
2023/01/19 01:47:32;;;;;;;10.33;5.27;;;;;;;-4.46;100.00;99645.31;5058277;28;20529;-75
2023/01/19 01:50:10;;;;;;;13.63;6.53;;;;;;;-4.46;100.00;99650.41;5073612;28;20781;-75
2023/01/19 01:52:44;;;;;;;8.17;5.53;;;;;;;-4.45;100.00;99649.56;5073249;28;20449;-75
2023/01/19 01:55:13;;;;;;;12.53;6.37;;;;;;;-4.49;100.00;99656.28;5072043;28;20896;-75
2023/01/19 01:57:46;;;;;;;12.23;5.90;;;;;;;-4.55;100.00;99653.63;5073725;28;20507;-75
2023/01/19 02:00:14;;;;;;;6.57;4.40;;;;;;;-4.57;100.00;99650.22;5055715;28;20463;-75
2023/01/19 02:02:50;;;;;;;9.13;5.80;;;;;;;-4.65;100.00;99646.66;5073568;28;20826;-75
2023/01/19 02:05:22;;;;;;;12.73;5.43;;;;;;;-4.68;100.00;99654.22;5072966;28;20472;-75
2023/01/19 02:13:25;;;;;;;9.23;5.40;;;;;;;-4.74;100.00;99662.59;5057376;28;20960;-76
2023/01/19 02:15:56;;;;;;;8.37;5.30;;;;;;;-4.82;100.00;99662.44;5072961;28;20490;-76
2023/01/19 02:18:26;;;;;;;9.13;5.13;;;;;;;-4.91;100.00;99662.22;5063422;28;20504;-76
2023/01/19 02:21:04;;;;;;;9.13;5.53;;;;;;;-4.88;100.00;99664.84;5062610;28;20474;-75
2023/01/19 02:23:41;;;;;;;10.80;5.33;;;;;;;-4.85;100.00;99675.09;5064207;28;20449;-75
2023/01/19 02:26:11;;;;;;;8.17;5.33;;;;;;;-4.98;100.00;99668.00;5072000;28;20547;-75
2023/01/19 02:28:41;;;;;;;11.13;5.87;;;;;;;-4.97;100.00;99672.28;5067353;28;20489;-75
2023/01/19 02:31:09;;;;;;;10.73;6.10;;;;;;;-5.22;100.00;99665.81;5051712;28;20460;-75
2023/01/19 02:33:36;;;;;;;8.13;5.37;;;;;;;-5.20;100.00;99670.09;5055205;28;20458;-75
2023/01/19 02:36:06;;;;;;;10.67;6.63;;;;;;;-5.16;100.00;99676.94;5072767;28;20462;-76
2023/01/19 02:38:38;;;;;;;12.97;7.30;;;;;;;-5.27;100.00;99670.78;5072901;28;20515;-75
2023/01/19 02:41:07;;;;;;;14.37;6.67;;;;;;;-5.19;100.00;99674.38;5073147;28;20449;-75
2023/01/19 02:43:36;;;;;;;10.23;6.50;;;;;;;-5.21;100.00;99675.13;5058531;28;20488;-75
2023/01/19 02:46:03;;;;;;;11.90;6.40;;;;;;;-5.28;100.00;99674.13;5072839;28;20473;-76
2023/01/19 02:48:30;;;;;;;14.67;8.13;;;;;;;-5.52;100.00;99675.31;5072143;28;20440;-76
2023/01/19 02:51:03;;;;;;;14.50;6.97;;;;;;;-5.54;100.00;99668.44;5072916;28;20805;-75
2023/01/19 02:53:48;;;;;;;16.40;7.50;;;;;;;-5.57;100.00;99679.41;5073085;28;20441;-75
2023/01/19 02:56:35;;;;;;;13.27;8.23;;;;;;;-5.68;100.00;99678.31;5054877;28;20484;-76
2023/01/19 02:59:13;;;;;;;13.57;7.70;;;;;;;-5.73;100.00;99680.72;5055208;28;20457;-76
2023/01/19 03:05:17;;;;;;;15.93;8.23;;;;;;;-5.67;100.00;99674.94;5073094;28;21079;-76
2023/01/19 03:08:07;;;;;;;12.20;7.07;;;;;;;-5.64;100.00;99680.09;5061498;28;20992;-76
2023/01/19 03:11:02;;;;;;;11.00;7.07;;;;;;;-5.63;100.00;99684.31;5034628;28;20445;-76
2023/01/19 03:13:45;;;;;;;13.53;7.77;;;;;;;-5.68;100.00;99685.03;5071713;28;20425;-76
2023/01/19 03:16:19;;;;;;;16.53;9.47;;;;;;;-5.71;100.00;99684.16;5071088;28;20518;-76
2023/01/19 03:18:51;;;;;;;15.00;8.93;;;;;;;-5.83;100.00;99685.53;5072470;28;20475;-75
2023/01/19 03:21:22;;;;;;;16.10;7.53;;;;;;;-5.84;100.00;99692.31;5072285;28;20510;-76
2023/01/19 03:23:51;;;;;;;17.83;9.40;;;;;;;-6.00;100.00;99697.84;5072405;28;20508;-76
2023/01/19 03:26:32;;;;;;;14.43;8.30;;;;;;;-6.13;100.00;99694.13;5072612;28;20479;-75
2023/01/19 03:32:48;;;;;;;14.37;8.80;;;;;;;-6.22;100.00;99704.03;5063541;28;20968;-75
2023/01/19 03:35:18;;;;;;;16.10;7.97;;;;;;;-6.26;100.00;99703.09;5065671;28;20877;-76
2023/01/19 03:37:48;;;;;;;20.67;8.43;;;;;;;-6.30;100.00;99693.66;5078543;28;20546;-76
2023/01/19 03:40:26;;;;;;;17.57;9.10;;;;;;;-6.37;100.00;99697.72;5074409;28;20462;-75
2023/01/19 03:44:08;;;;;;;15.60;8.30;;;;;;;-6.26;100.00;99702.22;5092352;28;21004;-75
2023/01/19 03:46:41;;;;;;;12.00;7.13;;;;;;;-6.26;100.00;99694.59;5070958;28;20480;-76
2023/01/19 03:49:09;;;;;;;18.83;8.70;;;;;;;-6.33;100.00;99694.47;5071045;28;20468;-76
2023/01/19 03:51:47;;;;;;;13.50;8.00;;;;;;;-6.28;100.00;99692.91;5087530;28;20444;-76
2023/01/19 03:54:14;;;;;;;16.97;8.80;;;;;;;-6.17;100.00;99700.81;5073874;28;20493;-76
2023/01/19 03:56:42;;;;;;;11.57;6.93;;;;;;;-6.07;100.00;99701.03;5071014;28;20476;-76
2023/01/19 04:05:56;;;;;;;9.53;6.53;;;;;;;-6.03;100.00;99705.34;5079347;28;20546;-76
2023/01/19 05:38:57;;;;;;;12.43;6.03;;;;;;;-7.06;100.00;99721.94;5055173;28;21081;-78
2023/01/19 05:41:23;;;;;;;11.10;6.57;;;;;;;-7.35;100.00;99715.13;5041068;28;20787;-78
2023/01/19 05:43:50;;;;;;;10.43;6.50;;;;;;;-7.40;100.00;99711.59;5041178;28;21336;-78
2023/01/19 05:46:16;;;;;;;8.83;5.77;;;;;;;-7.45;100.00;99714.84;5039973;28;20469;-77
2023/01/19 05:48:43;;;;;;;16.43;8.03;;;;;;;-7.46;100.00;99714.78;5040886;28;20584;-79
2023/01/19 05:51:10;;;;;;;20.27;10.57;;;;;;;-7.31;100.00;99719.50;5038048;22;20501;-73
2023/01/19 05:53:36;;;;;;;18.97;9.70;;;;;;;-7.29;100.00;99716.19;5024881;28;20461;-73
2023/01/19 05:56:07;;;;;;;13.67;7.07;;;;;;;-7.34;100.00;99712.63;5002251;28;20457;-73
2023/01/19 05:58:34;;;;;;;19.97;7.37;;;;;;;-7.50;100.00;99715.50;5027974;28;21123;-73
2023/01/19 06:01:04;;;;;;;17.83;9.27;;;;;;;-7.37;100.00;99711.69;5021725;28;20483;-73
2023/01/19 06:03:30;;;;;;;16.83;8.13;;;;;;;-7.29;100.00;99712.81;5025362;28;20847;-73
2023/01/19 06:05:57;;;;;;;17.27;9.50;;;;;;;-7.40;100.00;99716.66;5023887;28;20466;-73
2023/01/19 06:08:24;;;;;;;22.73;10.53;;;;;;;-7.42;100.00;99722.53;5027676;28;20470;-73
2023/01/19 06:10:50;;;;;;;23.73;13.17;;;;;;;-7.38;100.00;99722.66;4999906;28;20498;-73
2023/01/19 06:13:18;;;;;;;17.77;9.40;;;;;;;-7.41;100.00;99731.00;5024602;28;20810;-73
2023/01/19 06:15:45;;;;;;;25.43;12.63;;;;;;;-7.20;100.00;99727.44;5004836;28;20482;-73
2023/01/19 06:18:11;;;;;;;23.20;11.90;;;;;;;-7.23;100.00;99733.25;5003960;28;20863;-73
2023/01/19 06:20:38;;;;;;;14.67;7.10;;;;;;;-7.27;100.00;99733.97;5018610;28;20474;-73
2023/01/19 06:23:05;;;;;;;12.00;6.77;;;;;;;-7.22;100.00;99739.19;5019807;28;20450;-73
2023/01/19 06:25:31;;;;;;;14.03;7.90;;;;;;;-7.29;100.00;99741.50;5028097;28;20493;-73
2023/01/19 06:27:57;;;;;;;16.67;10.03;;;;;;;-7.38;100.00;99743.75;5018327;28;20470;-73
2023/01/19 06:30:25;;;;;;;11.47;5.93;;;;;;;-7.43;100.00;99750.34;5023975;28;20484;-73
2023/01/19 06:32:53;;;;;;;13.77;6.87;;;;;;;-7.47;100.00;99749.41;5022803;28;20490;-73
2023/01/19 06:35:19;;;;;;;9.03;5.23;;;;;;;-7.32;100.00;99758.28;5000547;28;20554;-73
2023/01/19 06:37:46;;;;;;;9.37;5.50;;;;;;;-7.43;100.00;99751.19;5025269;28;20905;-73
2023/01/19 06:40:12;;;;;;;10.17;6.00;;;;;;;-7.25;100.00;99763.59;5023505;28;21002;-73
2023/01/19 06:42:38;;;;;;;13.87;5.97;;;;;;;-7.14;100.00;99761.41;5019424;28;20695;-73
2023/01/19 06:45:06;;;;;;;11.50;5.73;;;;;;;-7.10;100.00;99760.69;5022906;28;20466;-73
2023/01/19 06:47:34;;;;;;;10.00;5.70;;;;;;;-7.18;100.00;99762.13;5024701;28;20988;-73
2023/01/19 06:50:01;;;;;;;11.60;5.57;;;;;;;-7.14;100.00;99765.59;5000050;28;20495;-73
2023/01/19 06:52:27;;;;;;;7.20;4.90;;;;;;;-7.33;100.00;99762.50;5009240;28;20534;-73
2023/01/19 06:54:53;;;;;;;10.73;5.93;;;;;;;-7.27;100.00;99762.69;5007368;28;20451;-73
2023/01/19 06:57:20;;;;;;;13.43;6.37;;;;;;;-7.24;100.00;99760.25;4993084;28;20476;-73
2023/01/19 06:59:47;;;;;;;12.17;6.20;;;;;;;-7.38;100.00;99756.44;5007221;28;20471;-73
2023/01/19 07:02:18;;;;;;;10.57;5.50;;;;;;;-7.37;100.00;99762.34;5009538;28;20468;-73
2023/01/19 07:04:46;;;;;;;13.40;5.37;;;;;;;-7.47;100.00;99772.19;5009424;28;20462;-73
2023/01/19 07:07:12;;;;;;;14.13;7.40;;;;;;;-7.33;100.00;99776.84;5014530;28;20554;-73
2023/01/19 07:09:39;;;;;;;43.40;17.80;;;;;;;-7.24;100.00;99782.19;5011752;28;20454;-73
2023/01/19 07:12:06;;;;;;;74.57;32.10;;;;;;;-7.08;100.00;99784.41;4995143;28;20459;-73
2023/01/19 07:14:33;;;;;;;67.23;27.87;;;;;;;-7.17;100.00;99785.81;5010296;28;20456;-73
2023/01/19 07:17:00;;;;;;;61.60;27.10;;;;;;;-7.25;100.00;99788.91;4998083;28;21058;-73
2023/01/19 07:19:27;;;;;;;47.70;20.23;;;;;;;-7.10;100.00;99788.56;5008897;28;20459;-73
2023/01/19 07:21:56;;;;;;;37.73;18.10;;;;;;;-6.92;100.00;99788.28;4992135;28;20477;-73
2023/01/19 07:24:23;;;;;;;40.97;17.97;;;;;;;-6.96;100.00;99791.53;5011671;28;20459;-73
2023/01/19 07:26:49;;;;;;;36.43;15.67;;;;;;;-7.02;100.00;99793.00;4999347;28;20464;-73
2023/01/19 07:29:15;;;;;;;23.00;10.97;;;;;;;-7.06;100.00;99797.97;5017041;28;20456;-73
2023/01/19 07:31:42;;;;;;;21.13;10.73;;;;;;;-7.05;100.00;99802.25;5014524;28;20662;-73
2023/01/19 07:34:08;;;;;;;25.03;12.80;;;;;;;-7.07;100.00;99811.47;5010251;28;20452;-73
2023/01/19 07:36:35;;;;;;;20.60;11.70;;;;;;;-6.85;100.00;99812.13;5012583;28;20963;-73
2023/01/19 07:39:02;;;;;;;22.17;10.87;;;;;;;-6.88;100.00;99810.38;5011468;28;20479;-74
2023/01/19 07:41:29;;;;;;;14.13;7.73;;;;;;;-6.87;100.00;99817.16;4995237;28;20505;-73
2023/01/19 07:43:55;;;;;;;14.70;7.50;;;;;;;-6.85;100.00;99814.69;5011573;28;20876;-73
2023/01/19 07:46:21;;;;;;;12.43;6.30;;;;;;;-6.78;100.00;99820.81;5005152;28;21245;-73
2023/01/19 07:48:48;;;;;;;13.20;6.77;;;;;;;-6.90;100.00;99816.19;5009902;28;20444;-73
2023/01/19 07:51:17;;;;;;;15.07;7.77;;;;;;;-6.85;100.00;99817.22;4999950;28;20474;-73
2023/01/19 07:53:44;;;;;;;10.30;6.33;;;;;;;-6.68;100.00;99827.88;5009284;28;20894;-73
2023/01/19 07:56:12;;;;;;;15.27;7.00;;;;;;;-6.53;100.00;99824.94;5017048;28;20451;-73
2023/01/19 07:58:38;;;;;;;13.20;6.93;;;;;;;-6.50;100.00;99830.09;4996005;28;21008;-73
2023/01/19 08:01:06;;;;;;;11.33;6.73;;;;;;;-6.52;100.00;99831.75;5010715;28;20466;-73
2023/01/19 08:03:33;;;;;;;13.47;7.10;;;;;;;-6.48;100.00;99836.94;4993630;28;20910;-73
2023/01/19 08:05:59;;;;;;;17.30;7.20;;;;;;;-6.60;100.00;99830.63;5003263;28;20479;-73
2023/01/19 08:08:26;;;;;;;17.70;8.60;;;;;;;-6.59;100.00;99833.22;5010145;28;20936;-73
2023/01/19 08:10:52;;;;;;;20.73;10.30;;;;;;;-6.47;100.00;99830.19;5012508;28;20459;-73
2023/01/19 08:13:20;;;;;;;20.27;9.93;;;;;;;-6.43;100.00;99831.16;5007808;28;20452;-73
2023/01/19 08:15:49;;;;;;;13.17;7.23;;;;;;;-6.58;100.00;99832.38;5005093;28;20459;-73
2023/01/19 08:18:15;;;;;;;12.67;7.27;;;;;;;-6.55;100.00;99836.72;4988833;28;20568;-73
2023/01/19 08:20:41;;;;;;;11.63;6.03;;;;;;;-6.55;100.00;99829.94;4998156;28;20525;-73
2023/01/19 08:23:08;;;;;;;9.67;5.87;;;;;;;-6.52;100.00;99831.75;5014403;28;20456;-73
2023/01/19 08:25:36;;;;;;;12.63;6.80;;;;;;;-6.40;100.00;99833.75;5007119;28;20512;-73
2023/01/19 08:28:05;;;;;;;9.87;5.87;;;;;;;-6.40;100.00;99839.72;5010962;28;20482;-74
2023/01/19 08:30:33;;;;;;;15.27;7.23;;;;;;;-6.30;100.00;99840.81;5007540;28;20475;-73
2023/01/19 08:33:03;;;;;;;18.03;7.27;;;;;;;-6.27;100.00;99846.00;5017579;28;20448;-73
2023/01/19 08:35:30;;;;;;;13.30;7.87;;;;;;;-6.24;100.00;99830.88;4994567;28;20459;-73
2023/01/19 08:37:59;;;;;;;16.37;8.63;;;;;;;-6.18;100.00;99832.72;5009098;28;20486;-73
2023/01/19 08:40:28;;;;;;;13.33;7.80;;;;;;;-6.28;100.00;99829.94;5011271;28;20471;-74
2023/01/19 08:42:59;;;;;;;15.53;7.80;;;;;;;-6.28;100.00;99836.66;5012822;28;20487;-73
2023/01/19 08:45:25;;;;;;;13.00;7.70;;;;;;;-6.17;100.00;99844.59;5011962;28;20483;-74
2023/01/19 08:47:55;;;;;;;14.03;7.93;;;;;;;-6.23;100.00;99842.72;5007403;28;20483;-74
2023/01/19 08:50:21;;;;;;;12.47;7.37;;;;;;;-6.13;100.00;99848.94;5009927;28;20476;-74
2023/01/19 08:52:47;;;;;;;11.73;7.10;;;;;;;-6.06;100.00;99848.28;5010582;28;21030;-73
2023/01/19 08:55:14;;;;;;;10.03;6.40;;;;;;;-5.91;100.00;99856.31;5012091;28;20451;-73
2023/01/19 08:57:41;;;;;;;11.87;6.53;;;;;;;-5.90;100.00;99849.56;5010076;28;20459;-73
2023/01/19 09:00:09;;;;;;;14.10;7.03;;;;;;;-5.89;100.00;99853.81;5011114;28;20474;-73
2023/01/19 09:02:36;;;;;;;14.00;6.93;;;;;;;-5.83;100.00;99866.69;5013497;28;20459;-73
2023/01/19 09:05:05;;;;;;;13.77;6.87;;;;;;;-5.80;100.00;99869.31;5009866;28;20473;-73
2023/01/19 09:07:31;;;;;;;10.73;6.60;;;;;;;-5.79;100.00;99873.56;5004808;28;20522;-74
2023/01/19 09:09:58;;;;;;;12.07;7.10;;;;;;;-5.73;100.00;99868.66;5011833;28;20548;-74
2023/01/19 09:12:24;;;;;;;11.93;6.23;;;;;;;-5.70;100.00;99872.94;5010874;28;20501;-74
2023/01/19 09:14:50;;;;;;;13.17;6.47;;;;;;;-5.59;100.00;99874.13;5010396;28;20510;-73
2023/01/19 09:17:17;;;;;;;15.73;7.77;;;;;;;-5.62;100.00;99885.88;5009824;28;20467;-74
2023/01/19 09:19:43;;;;;;;14.63;7.43;;;;;;;-5.62;100.00;99885.88;5010221;28;20568;-74
2023/01/19 09:22:11;;;;;;;13.70;7.47;;;;;;;-5.48;100.00;99879.47;4988856;28;20825;-74
2023/01/19 09:24:37;;;;;;;16.27;7.63;;;;;;;-5.51;100.00;99869.22;5005564;28;20467;-74
2023/01/19 09:27:05;;;;;;;13.03;7.20;;;;;;;-5.47;100.00;99875.25;5004921;28;20478;-74
2023/01/19 09:29:31;;;;;;;12.83;6.80;;;;;;;-5.39;100.00;99876.31;4984241;28;20561;-74
2023/01/19 09:31:57;;;;;;;13.40;6.73;;;;;;;-5.39;100.00;99872.09;5002417;28;20660;-74
2023/01/19 09:34:25;;;;;;;11.83;7.27;;;;;;;-5.35;100.00;99875.56;5009339;28;20470;-74
2023/01/19 09:36:51;;;;;;;13.00;7.67;;;;;;;-5.29;100.00;99883.38;4990574;28;20456;-74
2023/01/19 09:39:19;;;;;;;15.60;7.43;;;;;;;-5.28;100.00;99874.06;4989573;28;20490;-74
2023/01/19 09:41:49;;;;;;;15.07;7.50;;;;;;;-5.33;100.00;99873.94;5007255;28;20459;-74
2023/01/19 09:44:19;;;;;;;14.90;7.50;;;;;;;-5.28;100.00;99871.50;5008115;28;20722;-74
2023/01/19 09:46:46;;;;;;;11.67;7.27;;;;;;;-5.14;100.00;99860.91;5008466;28;20466;-74
2023/01/19 09:49:15;;;;;;;14.80;8.03;;;;;;;-5.09;100.00;99865.22;5002972;28;20446;-74
2023/01/19 09:51:45;;;;;;;13.33;7.90;;;;;;;-5.12;100.00;99860.91;5006158;28;20485;-74
2023/01/19 09:54:14;;;;;;;11.83;7.33;;;;;;;-5.06;100.00;99868.69;5010339;28;20449;-74
2023/01/19 09:56:44;;;;;;;18.33;8.53;;;;;;;-5.04;100.00;99861.13;5005666;28;20471;-74
2023/01/19 09:59:20;;;;;;;19.03;8.77;;;;;;;-4.94;100.00;99857.97;5005728;28;20534;-74
2023/01/19 10:02:00;;;;;;;13.20;8.13;;;;;;;-4.95;100.00;99859.63;5007795;28;21129;-74
2023/01/19 10:04:31;;;;;;;20.23;8.00;;;;;;;-4.85;100.00;99859.88;5007034;28;20511;-74
2023/01/19 10:07:12;;;;;;;12.83;7.53;;;;;;;-4.80;100.00;99854.06;5002387;28;20460;-74
2023/01/19 10:09:51;;;;;;;14.27;7.00;;;;;;;-4.72;100.00;99864.41;4984454;28;20470;-74
2023/01/19 10:12:32;;;;;;;23.33;9.50;;;;;;;-4.66;100.00;99863.69;5007384;28;20462;-74
2023/01/19 10:15:05;;;;;;;23.30;10.27;;;;;;;-4.67;100.00;99869.63;5005761;28;20553;-74
2023/01/19 10:17:43;;;;;;;21.83;10.87;;;;;;;-4.59;100.00;99863.88;5004183;28;20469;-74
2023/01/19 10:20:16;;;;;;;17.13;8.43;;;;;;;-4.62;100.00;99863.81;4985130;28;20479;-74
2023/01/19 10:22:47;;;;;;;17.90;9.13;;;;;;;-4.50;100.00;99863.25;5002394;28;20986;-74
2023/01/19 10:25:17;;;;;;;15.07;8.17;;;;;;;-4.46;100.00;99859.94;5006641;28;20452;-74
2023/01/19 10:27:46;;;;;;;17.20;8.57;;;;;;;-4.46;100.00;99856.53;5004895;28;20519;-74
2023/01/19 10:30:19;;;;;;;13.40;7.83;;;;;;;-4.37;100.00;99854.19;5010239;28;20470;-74
2023/01/19 10:32:46;;;;;;;16.57;8.73;;;;;;;-4.31;100.00;99858.53;5012380;28;20511;-74
2023/01/19 10:35:22;;;;;;;15.63;8.90;;;;;;;-4.31;100.00;99856.00;5007373;28;20470;-74
2023/01/19 10:37:49;;;;;;;12.83;8.27;;;;;;;-4.37;100.00;99856.72;5008493;28;20462;-74
2023/01/19 10:40:26;;;;;;;13.83;7.27;;;;;;;-4.36;100.00;99858.47;5007463;28;20482;-74
2023/01/19 10:42:54;;;;;;;15.83;8.20;;;;;;;-4.24;100.00;99856.19;5006355;28;20467;-74
2023/01/19 10:45:23;;;;;;;19.53;8.33;;;;;;;-4.33;100.00;99862.75;5005742;28;20517;-74
2023/01/19 10:47:51;;;;;;;15.63;8.00;;;;;;;-4.14;100.00;99857.22;5008428;28;20458;-74
2023/01/19 10:50:26;;;;;;;15.00;8.80;;;;;;;-4.11;100.00;99862.38;5001880;28;20515;-74
2023/01/19 10:52:54;;;;;;;20.30;7.70;;;;;;;-4.17;100.00;99854.59;5002831;28;20811;-74
2023/01/19 10:55:27;;;;;;;13.43;7.70;;;;;;;-4.16;100.00;99845.28;5011045;28;20460;-74
2023/01/19 10:57:56;;;;;;;20.27;9.73;;;;;;;-4.16;100.00;99843.59;5011570;28;20455;-74
2023/01/19 11:00:32;;;;;;;33.43;16.53;;;;;;;-4.17;100.00;99857.13;5004168;28;20494;-74
2023/01/19 11:02:58;;;;;;;20.03;10.03;;;;;;;-4.08;100.00;99859.03;5003125;28;20522;-74
2023/01/19 11:05:27;;;;;;;20.67;10.97;;;;;;;-4.03;100.00;99848.13;5005066;28;20468;-74
2023/01/19 11:07:54;;;;;;;18.30;10.50;;;;;;;-4.02;100.00;99854.94;5011829;28;20471;-74
2023/01/19 11:10:23;;;;;;;17.87;8.60;;;;;;;-4.00;100.00;99850.72;5008151;28;20464;-74
2023/01/19 11:13:06;;;;;;;13.83;8.57;;;;;;;-4.02;100.00;99852.38;4990845;28;20907;-74
2023/01/19 11:15:35;;;;;;;16.00;8.37;;;;;;;-4.05;100.00;99854.84;5008756;28;20534;-74
2023/01/19 11:18:05;;;;;;;15.27;9.33;;;;;;;-4.01;100.00;99853.22;4987175;28;20460;-74
2023/01/19 11:20:42;;;;;;;16.30;8.43;;;;;;;-3.96;100.00;99848.25;5006990;28;20476;-74
2023/01/19 11:23:19;;;;;;;15.57;8.23;;;;;;;-3.90;100.00;99850.94;4995346;28;20455;-74
2023/01/19 11:25:48;;;;;;;12.03;8.33;;;;;;;-3.89;100.00;99850.94;4984288;28;20464;-74
2023/01/19 11:28:19;;;;;;;15.03;8.57;;;;;;;-3.86;100.00;99847.59;5008137;28;20208;-74
2023/01/19 11:30:54;;;;;;;21.03;9.73;;;;;;;-3.81;100.00;99846.84;5007399;28;20467;-74
2023/01/19 11:33:25;;;;;;;22.87;9.13;;;;;;;-3.76;100.00;99854.59;5009390;28;20547;-74
2023/01/19 11:36:02;;;;;;;16.30;10.60;;;;;;;-3.72;100.00;99851.25;5003608;28;20220;-74
2023/01/19 11:38:28;;;;;;;21.53;11.00;;;;;;;-3.67;100.00;99844.56;5006183;28;20209;-74
2023/01/19 11:40:57;;;;;;;16.80;10.50;;;;;;;-3.58;100.00;99850.69;5004932;28;20471;-74
2023/01/19 11:43:28;;;;;;;17.37;10.67;;;;;;;-3.58;100.00;99843.88;5002372;28;20547;-74
2023/01/19 11:45:56;;;;;;;18.53;9.70;;;;;;;-3.51;100.00;99843.16;5003944;28;20208;-74
2023/01/19 11:48:29;;;;;;;18.40;10.17;;;;;;;-3.48;100.00;99843.22;5008491;28;20217;-74
2023/01/19 11:51:00;;;;;;;21.53;10.00;;;;;;;-3.39;100.00;99850.19;5038591;22;20503;-74
2023/01/19 11:53:34;;;;;;;19.43;10.23;;;;;;;-3.37;100.00;99847.66;5063312;28;20200;-71
2023/01/19 11:56:04;;;;;;;22.97;9.90;;;;;;;-3.33;100.00;99850.28;5068705;22;20502;-71
2023/01/19 11:58:36;;;;;;;17.33;9.93;;;;;;;-3.31;100.00;99852.84;5019714;28;20204;-71
2023/01/19 12:01:09;;;;;;;15.93;9.70;;;;;;;-3.26;100.00;99843.59;5021010;28;20233;-72
2023/01/19 12:03:41;;;;;;;25.83;10.87;;;;;;;-3.20;100.00;99837.75;5020897;28;20201;-71
2023/01/19 12:06:13;;;;;;;15.40;9.30;;;;;;;-3.11;100.00;99845.56;5017184;28;20200;-71
2023/01/19 12:08:43;;;;;;;18.37;10.30;;;;;;;-3.11;100.00;99843.88;5019810;28;20635;-72
2023/01/19 12:11:15;;;;;;;20.10;10.07;;;;;;;-3.08;100.00;99840.50;5019938;28;20223;-72
2023/01/19 12:13:45;;;;;;;14.77;8.97;;;;;;;-3.03;100.00;99840.59;5016161;28;20219;-71
2023/01/19 12:16:17;;;;;;;16.30;9.23;;;;;;;-3.02;100.00;99837.22;5017185;28;20554;-71
2023/01/19 12:18:47;;;;;;;15.20;8.33;;;;;;;-3.03;100.00;99838.88;5028776;28;20210;-71
2023/01/19 12:21:14;;;;;;;17.73;10.43;;;;;;;-2.93;100.00;99847.56;5020069;28;20223;-72
2023/01/19 12:23:50;;;;;;;18.27;9.97;;;;;;;-2.89;100.00;99841.66;5025765;28;20203;-72
2023/01/19 12:26:27;;;;;;;17.77;10.00;;;;;;;-2.91;100.00;99841.63;5007342;28;20282;-72
2023/01/19 12:28:59;;;;;;;14.10;9.07;;;;;;;-2.89;100.00;99847.63;5024707;28;20199;-72
2023/01/19 12:31:26;;;;;;;16.73;9.13;;;;;;;-2.81;100.00;99851.97;5024926;28;20220;-72
2023/01/19 12:33:53;;;;;;;18.67;10.90;;;;;;;-2.78;100.00;99846.94;5017118;28;20193;-72
2023/01/19 12:36:36;;;;;;;16.07;9.77;;;;;;;-2.74;100.00;99846.16;5019280;28;20192;-72
2023/01/19 12:39:06;;;;;;;23.60;10.27;;;;;;;-2.74;100.00;99839.34;5022336;28;20628;-72
2023/01/19 12:41:34;;;;;;;21.13;10.43;;;;;;;-2.74;100.00;99841.06;5025557;28;20262;-72
2023/01/19 12:44:21;;;;;;;15.50;9.47;;;;;;;-2.67;100.00;99837.75;5019911;28;20222;-71
2023/01/19 12:46:51;;;;;;;17.80;10.30;;;;;;;-2.63;100.00;99836.13;5025413;28;20200;-72
2023/01/19 12:49:25;;;;;;;23.03;10.97;;;;;;;-2.62;100.00;99833.59;5023198;28;20239;-71
2023/01/19 12:51:55;;;;;;;17.93;9.83;;;;;;;-2.56;100.00;99837.91;5024389;28;20227;-72
2023/01/19 12:54:28;;;;;;;16.97;10.17;;;;;;;-2.54;100.00;99831.97;5026370;28;20210;-72
2023/01/19 12:56:59;;;;;;;18.07;11.10;;;;;;;-2.53;100.00;99838.81;5025955;28;20315;-72
2023/01/19 12:59:28;;;;;;;15.90;9.60;;;;;;;-2.51;100.00;99837.13;5028497;28;20211;-72
2023/01/19 13:02:32;;;;;;;14.97;9.13;;;;;;;-2.48;100.00;99838.88;5030172;28;20220;-72
2023/01/19 13:05:12;;;;;;;20.27;9.93;;;;;;;-2.44;100.00;99827.88;5025752;28;20258;-72
2023/01/19 13:08:16;;;;;;;18.27;9.90;;;;;;;-2.49;100.00;99829.50;5029164;28;20204;-72
2023/01/19 13:11:21;;;;;;;22.33;10.17;;;;;;;-2.48;100.00;99834.63;5030555;28;20212;-72
2023/01/19 13:14:26;;;;;;;16.07;9.40;;;;;;;-2.46;100.00;99844.88;5028069;28;20275;-72
2023/01/19 13:17:21;;;;;;;15.30;9.20;;;;;;;-2.35;100.00;99838.22;5024259;28;20229;-72
2023/01/19 13:19:53;;;;;;;17.13;10.03;;;;;;;-2.34;100.00;99836.50;5024291;28;20733;-72
2023/01/19 13:23:03;;;;;;;24.43;9.50;;;;;;;-2.38;100.00;99832.19;5021341;28;20188;-72